sensor_id;sensor_type;location;lat;lon;timestamp;temperature;humidity
6206;DHT22;3136;48.788;9.772;2022-08-11T00:01:23;14.30;2.60
6206;DHT22;3136;48.788;9.772;2022-08-11T00:04:02;14.20;2.60
6206;DHT22;3136;48.788;9.772;2022-08-11T00:06:31;14.10;3.20
6206;DHT22;3136;48.788;9.772;2022-08-11T00:08:58;14.10;3.50
6206;DHT22;3136;48.788;9.772;2022-08-11T00:14:32;14.00;4.00
6206;DHT22;3136;48.788;9.772;2022-08-11T00:17:00;14.00;5.40
6206;DHT22;3136;48.788;9.772;2022-08-11T00:19:32;13.90;5.20
6206;DHT22;3136;48.788;9.772;2022-08-11T00:21:59;13.90;5.30
6206;DHT22;3136;48.788;9.772;2022-08-11T00:24:32;13.90;4.80
6206;DHT22;3136;48.788;9.772;2022-08-11T00:26:59;13.80;5.80
6206;DHT22;3136;48.788;9.772;2022-08-11T00:29:25;13.80;6.30
6206;DHT22;3136;48.788;9.772;2022-08-11T00:31:53;13.80;8.00
6206;DHT22;3136;48.788;9.772;2022-08-11T00:34:30;13.70;7.70
6206;DHT22;3136;48.788;9.772;2022-08-11T00:37:02;13.70;8.20
6206;DHT22;3136;48.788;9.772;2022-08-11T00:39:30;13.60;9.00
6206;DHT22;3136;48.788;9.772;2022-08-11T00:42:26;13.50;10.20
6206;DHT22;3136;48.788;9.772;2022-08-11T01:09:39;13.50;13.70
6206;DHT22;3136;48.788;9.772;2022-08-11T01:20:57;13.30;15.90
6206;DHT22;3136;48.788;9.772;2022-08-11T01:29:10;13.20;17.20
6206;DHT22;3136;48.788;9.772;2022-08-11T01:43:45;13.00;20.00
6206;DHT22;3136;48.788;9.772;2022-08-11T01:47:08;12.90;22.30
6206;DHT22;3136;48.788;9.772;2022-08-11T01:49:35;12.90;24.30
6206;DHT22;3136;48.788;9.772;2022-08-11T01:52:12;12.90;24.60
6206;DHT22;3136;48.788;9.772;2022-08-11T02:00:02;12.80;26.20
6206;DHT22;3136;48.788;9.772;2022-08-11T02:02:49;12.90;26.40
6206;DHT22;3136;48.788;9.772;2022-08-11T02:11:12;12.70;27.10
6206;DHT22;3136;48.788;9.772;2022-08-11T02:14:11;12.60;27.70
6206;DHT22;3136;48.788;9.772;2022-08-11T02:23:06;12.60;29.90
6206;DHT22;3136;48.788;9.772;2022-08-11T02:26:10;12.60;29.30
6206;DHT22;3136;48.788;9.772;2022-08-11T02:31:22;12.60;27.80
6206;DHT22;3136;48.788;9.772;2022-08-11T02:40:15;12.50;29.50
6206;DHT22;3136;48.788;9.772;2022-08-11T02:45:30;12.40;30.90
6206;DHT22;3136;48.788;9.772;2022-08-11T02:48:31;12.30;31.90
6206;DHT22;3136;48.788;9.772;2022-08-11T02:56:45;12.20;37.90
6206;DHT22;3136;48.788;9.772;2022-08-11T03:10:07;12.10;47.00
6206;DHT22;3136;48.788;9.772;2022-08-11T03:16:04;12.00;47.30
6206;DHT22;3136;48.788;9.772;2022-08-11T03:22:16;11.90;49.50
6206;DHT22;3136;48.788;9.772;2022-08-11T03:25:15;12.00;53.20
6206;DHT22;3136;48.788;9.772;2022-08-11T03:28:06;11.90;51.90
6206;DHT22;3136;48.788;9.772;2022-08-11T03:30:43;11.90;57.10
6206;DHT22;3136;48.788;9.772;2022-08-11T03:33:17;11.80;53.90
6206;DHT22;3136;48.788;9.772;2022-08-11T03:42:05;11.80;60.00
6206;DHT22;3136;48.788;9.772;2022-08-11T03:50:27;11.80;61.60
6206;DHT22;3136;48.788;9.772;2022-08-11T04:27:11;11.50;86.40
6206;DHT22;3136;48.788;9.772;2022-08-11T04:30:02;11.50;88.80
6206;DHT22;3136;48.788;9.772;2022-08-11T04:55:31;11.80;99.10
6206;DHT22;3136;48.788;9.772;2022-08-11T05:09:52;12.30;82.30
6206;DHT22;3136;48.788;9.772;2022-08-11T05:12:27;12.30;79.50
6206;DHT22;3136;48.788;9.772;2022-08-11T05:14:58;12.30;75.30
6206;DHT22;3136;48.788;9.772;2022-08-11T05:18:06;12.30;74.00
6206;DHT22;3136;48.788;9.772;2022-08-11T05:20:55;12.60;78.30
6206;DHT22;3136;48.788;9.772;2022-08-11T05:24:03;12.60;75.70
6206;DHT22;3136;48.788;9.772;2022-08-11T05:26:48;12.60;75.00
6206;DHT22;3136;48.788;9.772;2022-08-11T05:32:35;12.90;68.00
6206;DHT22;3136;48.788;9.772;2022-08-11T05:35:47;13.00;68.50
6206;DHT22;3136;48.788;9.772;2022-08-11T05:38:24;13.20;69.80
6206;DHT22;3136;48.788;9.772;2022-08-11T05:41:11;13.30;63.50
6206;DHT22;3136;48.788;9.772;2022-08-11T05:43:58;13.40;63.50
6206;DHT22;3136;48.788;9.772;2022-08-11T05:46:43;13.50;62.90
6206;DHT22;3136;48.788;9.772;2022-08-11T05:49:32;13.60;62.80
6206;DHT22;3136;48.788;9.772;2022-08-11T05:52:20;13.80;62.60
6206;DHT22;3136;48.788;9.772;2022-08-11T05:55:06;13.90;58.10
6206;DHT22;3136;48.788;9.772;2022-08-11T05:58:00;14.10;56.60
6206;DHT22;3136;48.788;9.772;2022-08-11T06:00:27;14.20;52.30
6206;DHT22;3136;48.788;9.772;2022-08-11T06:02:58;14.40;53.00
6206;DHT22;3136;48.788;9.772;2022-08-11T06:05:36;14.50;53.10
6206;DHT22;3136;48.788;9.772;2022-08-11T06:08:04;14.70;46.50
6206;DHT22;3136;48.788;9.772;2022-08-11T06:10:33;14.90;48.80
6206;DHT22;3136;48.788;9.772;2022-08-11T06:13:00;15.10;45.60
6206;DHT22;3136;48.788;9.772;2022-08-11T06:15:27;15.30;39.40
6206;DHT22;3136;48.788;9.772;2022-08-11T06:17:55;15.50;53.80
6206;DHT22;3136;48.788;9.772;2022-08-11T06:20:22;15.70;29.10
6206;DHT22;3136;48.788;9.772;2022-08-11T06:23:02;16.00;25.30
6206;DHT22;3136;48.788;9.772;2022-08-11T06:25:33;16.30;21.50
6206;DHT22;3136;48.788;9.772;2022-08-11T06:28:01;16.60;19.90
6206;DHT22;3136;48.788;9.772;2022-08-11T06:30:35;16.90;17.80
6206;DHT22;3136;48.788;9.772;2022-08-11T06:33:08;17.00;15.60
6206;DHT22;3136;48.788;9.772;2022-08-11T06:38:22;17.40;14.80
6206;DHT22;3136;48.788;9.772;2022-08-11T06:40:55;17.60;12.50
6206;DHT22;3136;48.788;9.772;2022-08-11T06:43:50;17.80;9.80
6206;DHT22;3136;48.788;9.772;2022-08-11T06:46:28;18.10;8.50
6206;DHT22;3136;48.788;9.772;2022-08-11T06:48:54;18.20;6.40
6206;DHT22;3136;48.788;9.772;2022-08-11T06:51:21;18.40;5.40
6206;DHT22;3136;48.788;9.772;2022-08-11T06:53:58;18.50;5.50
6206;DHT22;3136;48.788;9.772;2022-08-11T06:56:29;18.70;3.70
6206;DHT22;3136;48.788;9.772;2022-08-11T06:59:16;18.80;2.90
6206;DHT22;3136;48.788;9.772;2022-08-11T07:04:35;19.10;2.60
6206;DHT22;3136;48.788;9.772;2022-08-11T07:07:26;19.30;1.00
6206;DHT22;3136;48.788;9.772;2022-08-11T07:10:22;19.40;15.00
6206;DHT22;3136;48.788;9.772;2022-08-11T07:13:09;19.60;1.00
6206;DHT22;3136;48.788;9.772;2022-08-11T07:15:56;19.70;1.00
6206;DHT22;3136;48.788;9.772;2022-08-11T07:18:28;19.90;1.00
6206;DHT22;3136;48.788;9.772;2022-08-11T07:21:29;20.00;1.00
6206;DHT22;3136;48.788;9.772;2022-08-11T07:24:17;20.20;1.00
6206;DHT22;3136;48.788;9.772;2022-08-11T07:27:07;20.40;1.00
6206;DHT22;3136;48.788;9.772;2022-08-11T07:29:52;20.50;1.00
6206;DHT22;3136;48.788;9.772;2022-08-11T07:32:49;20.70;1.00
6206;DHT22;3136;48.788;9.772;2022-08-11T07:35:17;20.90;1.00
6206;DHT22;3136;48.788;9.772;2022-08-11T07:37:49;21.10;1.00
6206;DHT22;3136;48.788;9.772;2022-08-11T07:40:23;21.20;1.00
6206;DHT22;3136;48.788;9.772;2022-08-11T07:42:52;21.30;1.00
6206;DHT22;3136;48.788;9.772;2022-08-11T07:45:18;21.40;1.00
6206;DHT22;3136;48.788;9.772;2022-08-11T07:48:03;21.50;1.00
6206;DHT22;3136;48.788;9.772;2022-08-11T07:50:48;21.70;1.00
6206;DHT22;3136;48.788;9.772;2022-08-11T07:53:33;21.80;1.00
6206;DHT22;3136;48.788;9.772;2022-08-11T07:56:03;21.80;1.00
6206;DHT22;3136;48.788;9.772;2022-08-11T07:58:30;21.90;1.00
6206;DHT22;3136;48.788;9.772;2022-08-11T08:01:18;22.10;1.00
6206;DHT22;3136;48.788;9.772;2022-08-11T08:04:05;22.10;1.00
6206;DHT22;3136;48.788;9.772;2022-08-11T08:06:50;22.30;1.00
6206;DHT22;3136;48.788;9.772;2022-08-11T08:09:35;22.30;1.00
6206;DHT22;3136;48.788;9.772;2022-08-11T08:12:22;22.40;1.00
6206;DHT22;3136;48.788;9.772;2022-08-11T08:15:08;22.60;1.00
6206;DHT22;3136;48.788;9.772;2022-08-11T08:17:54;22.60;1.00
6206;DHT22;3136;48.788;9.772;2022-08-11T08:20:32;22.70;1.00
6206;DHT22;3136;48.788;9.772;2022-08-11T08:23:01;22.70;1.00
6206;DHT22;3136;48.788;9.772;2022-08-11T08:25:32;22.80;1.00
6206;DHT22;3136;48.788;9.772;2022-08-11T08:27:59;22.90;1.00
6206;DHT22;3136;48.788;9.772;2022-08-11T08:30:27;22.90;1.00
6206;DHT22;3136;48.788;9.772;2022-08-11T08:33:13;23.00;1.00
6206;DHT22;3136;48.788;9.772;2022-08-11T08:35:40;23.00;1.00
6206;DHT22;3136;48.788;9.772;2022-08-11T08:38:07;23.10;1.00
6206;DHT22;3136;48.788;9.772;2022-08-11T08:40:33;23.10;1.00
6206;DHT22;3136;48.788;9.772;2022-08-11T08:43:03;23.20;1.00
6206;DHT22;3136;48.788;9.772;2022-08-11T08:45:33;23.30;1.00
6206;DHT22;3136;48.788;9.772;2022-08-11T08:48:03;23.40;1.00
6206;DHT22;3136;48.788;9.772;2022-08-11T08:50:33;23.40;1.00
6206;DHT22;3136;48.788;9.772;2022-08-11T08:53:22;23.60;1.00
6206;DHT22;3136;48.788;9.772;2022-08-11T08:55:49;23.70;1.00
6206;DHT22;3136;48.788;9.772;2022-08-11T08:58:18;23.80;1.00
6206;DHT22;3136;48.788;9.772;2022-08-11T09:00:45;23.90;1.00
6206;DHT22;3136;48.788;9.772;2022-08-11T09:03:15;23.90;1.00
6206;DHT22;3136;48.788;9.772;2022-08-11T09:05:41;24.30;1.00
6206;DHT22;3136;48.788;9.772;2022-08-11T09:08:07;24.30;1.00
6206;DHT22;3136;48.788;9.772;2022-08-11T09:10:34;24.40;1.00
6206;DHT22;3136;48.788;9.772;2022-08-11T09:13:02;24.40;1.00
6206;DHT22;3136;48.788;9.772;2022-08-11T09:15:29;24.60;1.00
6206;DHT22;3136;48.788;9.772;2022-08-11T09:17:56;24.80;1.00
6206;DHT22;3136;48.788;9.772;2022-08-11T09:20:35;24.70;1.00
6206;DHT22;3136;48.788;9.772;2022-08-11T09:23:08;24.60;1.00
6206;DHT22;3136;48.788;9.772;2022-08-11T09:25:55;24.60;1.00
6206;DHT22;3136;48.788;9.772;2022-08-11T09:28:44;24.70;1.00
6206;DHT22;3136;48.788;9.772;2022-08-11T09:31:10;24.70;1.00
6206;DHT22;3136;48.788;9.772;2022-08-11T09:33:38;24.80;1.00
6206;DHT22;3136;48.788;9.772;2022-08-11T09:36:05;24.90;1.00
6206;DHT22;3136;48.788;9.772;2022-08-11T09:38:50;25.00;1.00
6206;DHT22;3136;48.788;9.772;2022-08-11T09:41:35;25.10;1.00
6206;DHT22;3136;48.788;9.772;2022-08-11T09:44:02;25.20;1.00
6206;DHT22;3136;48.788;9.772;2022-08-11T09:46:48;25.40;1.00
6206;DHT22;3136;48.788;9.772;2022-08-11T09:49:14;25.50;1.00
6206;DHT22;3136;48.788;9.772;2022-08-11T09:51:43;25.50;1.00
6206;DHT22;3136;48.788;9.772;2022-08-11T09:54:09;25.70;1.00
6206;DHT22;3136;48.788;9.772;2022-08-11T09:56:35;25.80;1.00
6206;DHT22;3136;48.788;9.772;2022-08-11T09:59:20;25.90;1.00
6206;DHT22;3136;48.788;9.772;2022-08-11T10:01:49;25.90;1.00
6206;DHT22;3136;48.788;9.772;2022-08-11T10:04:26;26.00;1.00
6206;DHT22;3136;48.788;9.772;2022-08-11T10:06:57;26.20;1.00
6206;DHT22;3136;48.788;9.772;2022-08-11T10:09:28;26.20;1.00
6206;DHT22;3136;48.788;9.772;2022-08-11T10:11:58;26.30;1.00
6206;DHT22;3136;48.788;9.772;2022-08-11T10:14:29;26.30;1.00
6206;DHT22;3136;48.788;9.772;2022-08-11T10:17:16;26.40;1.00
6206;DHT22;3136;48.788;9.772;2022-08-11T10:19:45;26.70;1.00
6206;DHT22;3136;48.788;9.772;2022-08-11T10:22:13;26.70;1.00
6206;DHT22;3136;48.788;9.772;2022-08-11T10:24:58;26.70;1.00
6206;DHT22;3136;48.788;9.772;2022-08-11T10:27:44;26.70;1.00
6206;DHT22;3136;48.788;9.772;2022-08-11T10:30:10;26.80;1.00
6206;DHT22;3136;48.788;9.772;2022-08-11T10:32:56;27.10;1.00
6206;DHT22;3136;48.788;9.772;2022-08-11T10:35:41;27.30;1.00
6206;DHT22;3136;48.788;9.772;2022-08-11T10:38:08;27.40;1.00
6206;DHT22;3136;48.788;9.772;2022-08-11T10:40:34;27.70;1.00
6206;DHT22;3136;48.788;9.772;2022-08-11T10:43:00;28.70;1.00
6206;DHT22;3136;48.788;9.772;2022-08-11T10:45:39;29.90;1.00
6206;DHT22;3136;48.788;9.772;2022-08-11T10:48:28;30.80;1.00
6206;DHT22;3136;48.788;9.772;2022-08-11T10:50:55;31.70;1.00
6206;DHT22;3136;48.788;9.772;2022-08-11T10:53:51;31.80;1.00
6206;DHT22;3136;48.788;9.772;2022-08-11T10:56:36;32.40;1.00
6206;DHT22;3136;48.788;9.772;2022-08-11T10:59:26;32.80;1.00
6206;DHT22;3136;48.788;9.772;2022-08-11T11:01:52;33.10;1.00
6206;DHT22;3136;48.788;9.772;2022-08-11T11:04:23;33.10;1.00
6206;DHT22;3136;48.788;9.772;2022-08-11T11:09:28;33.70;1.00
6206;DHT22;3136;48.788;9.772;2022-08-11T11:14:44;33.60;1.00
6206;DHT22;3136;48.788;9.772;2022-08-11T11:17:32;33.80;1.00
6206;DHT22;3136;48.788;9.772;2022-08-11T11:20:25;34.00;1.00
6206;DHT22;3136;48.788;9.772;2022-08-11T11:22:55;33.90;1.00
6206;DHT22;3136;48.788;9.772;2022-08-11T11:25:35;33.60;1.00
6206;DHT22;3136;48.788;9.772;2022-08-11T11:30:45;34.20;1.00
6206;DHT22;3136;48.788;9.772;2022-08-11T11:33:24;34.70;1.00
6206;DHT22;3136;48.788;9.772;2022-08-11T11:36:18;34.90;1.00
6206;DHT22;3136;48.788;9.772;2022-08-11T11:38:48;35.00;1.00
6206;DHT22;3136;48.788;9.772;2022-08-11T11:41:13;35.40;1.00
6206;DHT22;3136;48.788;9.772;2022-08-11T11:43:55;35.90;1.00
6206;DHT22;3136;48.788;9.772;2022-08-11T11:46:25;36.30;1.00
6206;DHT22;3136;48.788;9.772;2022-08-11T11:48:53;36.40;1.00
6206;DHT22;3136;48.788;9.772;2022-08-11T11:51:21;36.40;1.00
6206;DHT22;3136;48.788;9.772;2022-08-11T11:53:47;36.20;1.00
6206;DHT22;3136;48.788;9.772;2022-08-11T11:56:14;36.60;1.00
6206;DHT22;3136;48.788;9.772;2022-08-11T11:58:40;36.80;1.00
6206;DHT22;3136;48.788;9.772;2022-08-11T12:01:26;37.30;1.00
6206;DHT22;3136;48.788;9.772;2022-08-11T12:03:54;37.10;1.00
6206;DHT22;3136;48.788;9.772;2022-08-11T12:06:22;37.30;1.00
6206;DHT22;3136;48.788;9.772;2022-08-11T12:08:52;37.10;1.00
6206;DHT22;3136;48.788;9.772;2022-08-11T12:11:19;37.40;1.00
6206;DHT22;3136;48.788;9.772;2022-08-11T12:14:05;37.50;1.00
6206;DHT22;3136;48.788;9.772;2022-08-11T12:16:34;37.50;1.00
6206;DHT22;3136;48.788;9.772;2022-08-11T12:19:02;36.80;1.00
6206;DHT22;3136;48.788;9.772;2022-08-11T12:21:29;36.70;1.00
6206;DHT22;3136;48.788;9.772;2022-08-11T12:23:57;36.90;1.00
6206;DHT22;3136;48.788;9.772;2022-08-11T12:26:43;37.10;1.00
6206;DHT22;3136;48.788;9.772;2022-08-11T12:29:13;37.30;1.00
6206;DHT22;3136;48.788;9.772;2022-08-11T12:31:40;37.30;1.00
6206;DHT22;3136;48.788;9.772;2022-08-11T12:34:17;36.70;1.00
6206;DHT22;3136;48.788;9.772;2022-08-11T12:36:56;37.20;1.00
6206;DHT22;3136;48.788;9.772;2022-08-11T12:39:26;37.60;1.00
6206;DHT22;3136;48.788;9.772;2022-08-11T12:42:13;37.80;1.00
6206;DHT22;3136;48.788;9.772;2022-08-11T12:45:01;37.60;1.00
6206;DHT22;3136;48.788;9.772;2022-08-11T12:47:49;37.20;1.00
6206;DHT22;3136;48.788;9.772;2022-08-11T12:50:35;36.90;1.00
6206;DHT22;3136;48.788;9.772;2022-08-11T12:53:31;37.20;1.00
6206;DHT22;3136;48.788;9.772;2022-08-11T12:56:03;37.20;1.00
6206;DHT22;3136;48.788;9.772;2022-08-11T12:58:50;36.80;1.00
6206;DHT22;3136;48.788;9.772;2022-08-11T13:01:17;36.80;1.00
6206;DHT22;3136;48.788;9.772;2022-08-11T13:04:03;37.00;1.00
6206;DHT22;3136;48.788;9.772;2022-08-11T13:06:48;36.70;1.00
6206;DHT22;3136;48.788;9.772;2022-08-11T13:09:15;36.80;1.00
6206;DHT22;3136;48.788;9.772;2022-08-11T13:11:42;36.70;1.00
6206;DHT22;3136;48.788;9.772;2022-08-11T13:14:29;37.10;1.00
6206;DHT22;3136;48.788;9.772;2022-08-11T13:16:57;37.00;1.00
6206;DHT22;3136;48.788;9.772;2022-08-11T13:19:42;37.20;1.00
6206;DHT22;3136;48.788;9.772;2022-08-11T13:22:10;37.30;1.00
6206;DHT22;3136;48.788;9.772;2022-08-11T13:24:37;37.20;1.00
6206;DHT22;3136;48.788;9.772;2022-08-11T13:27:04;36.80;1.00
6206;DHT22;3136;48.788;9.772;2022-08-11T13:29:29;36.40;1.00
6206;DHT22;3136;48.788;9.772;2022-08-11T13:31:56;36.70;1.00
6206;DHT22;3136;48.788;9.772;2022-08-11T13:34:26;36.70;1.00
6206;DHT22;3136;48.788;9.772;2022-08-11T13:36:54;36.70;1.00
6206;DHT22;3136;48.788;9.772;2022-08-11T13:39:24;36.60;1.00
6206;DHT22;3136;48.788;9.772;2022-08-11T13:41:52;36.50;1.00
6206;DHT22;3136;48.788;9.772;2022-08-11T13:44:19;36.20;1.00
6206;DHT22;3136;48.788;9.772;2022-08-11T13:46:45;36.00;1.00
6206;DHT22;3136;48.788;9.772;2022-08-11T13:49:15;35.80;1.00
6206;DHT22;3136;48.788;9.772;2022-08-11T13:51:41;35.90;1.00
6206;DHT22;3136;48.788;9.772;2022-08-11T13:54:16;35.70;1.00
6206;DHT22;3136;48.788;9.772;2022-08-11T13:56:47;35.50;1.00
6206;DHT22;3136;48.788;9.772;2022-08-11T13:59:17;35.50;1.00
6206;DHT22;3136;48.788;9.772;2022-08-11T14:01:48;35.70;1.00
6206;DHT22;3136;48.788;9.772;2022-08-11T14:04:30;35.70;1.00
6206;DHT22;3136;48.788;9.772;2022-08-11T14:07:01;35.40;1.00
6206;DHT22;3136;48.788;9.772;2022-08-11T14:09:31;35.10;1.00
6206;DHT22;3136;48.788;9.772;2022-08-11T14:12:01;34.90;1.00
6206;DHT22;3136;48.788;9.772;2022-08-11T14:14:54;35.00;1.00
6206;DHT22;3136;48.788;9.772;2022-08-11T14:17:23;34.60;1.00
6206;DHT22;3136;48.788;9.772;2022-08-11T14:19:50;34.20;1.00
6206;DHT22;3136;48.788;9.772;2022-08-11T14:22:18;33.40;1.00
6206;DHT22;3136;48.788;9.772;2022-08-11T14:24:46;32.90;1.00
6206;DHT22;3136;48.788;9.772;2022-08-11T14:27:14;33.30;1.00
6206;DHT22;3136;48.788;9.772;2022-08-11T14:29:41;31.90;1.00
6206;DHT22;3136;48.788;9.772;2022-08-11T14:32:10;31.60;1.00
6206;DHT22;3136;48.788;9.772;2022-08-11T14:34:40;31.30;1.00
6206;DHT22;3136;48.788;9.772;2022-08-11T14:37:09;30.90;1.00
6206;DHT22;3136;48.788;9.772;2022-08-11T14:39:43;30.60;1.00
6206;DHT22;3136;48.788;9.772;2022-08-11T14:42:12;30.40;1.00
6206;DHT22;3136;48.788;9.772;2022-08-11T14:45:00;30.30;1.00
6206;DHT22;3136;48.788;9.772;2022-08-11T14:47:49;30.10;1.00
6206;DHT22;3136;48.788;9.772;2022-08-11T14:50:17;30.00;1.00
6206;DHT22;3136;48.788;9.772;2022-08-11T14:52:55;30.00;1.00
6206;DHT22;3136;48.788;9.772;2022-08-11T14:55:24;29.90;1.00
6206;DHT22;3136;48.788;9.772;2022-08-11T14:58:09;29.80;1.00
6206;DHT22;3136;48.788;9.772;2022-08-11T15:00:36;29.80;1.00
6206;DHT22;3136;48.788;9.772;2022-08-11T15:03:04;29.70;1.00
6206;DHT22;3136;48.788;9.772;2022-08-11T15:05:48;29.50;1.00
6206;DHT22;3136;48.788;9.772;2022-08-11T15:08:16;29.40;1.00
6206;DHT22;3136;48.788;9.772;2022-08-11T15:10:43;29.40;1.00
6206;DHT22;3136;48.788;9.772;2022-08-11T15:13:09;29.30;1.00
6206;DHT22;3136;48.788;9.772;2022-08-11T15:15:36;29.30;1.00
6206;DHT22;3136;48.788;9.772;2022-08-11T15:18:22;29.30;1.00
6206;DHT22;3136;48.788;9.772;2022-08-11T15:20:49;29.20;1.00
6206;DHT22;3136;48.788;9.772;2022-08-11T15:23:34;29.20;1.00
6206;DHT22;3136;48.788;9.772;2022-08-11T15:26:36;29.10;1.00
6206;DHT22;3136;48.788;9.772;2022-08-11T15:29:23;29.10;1.00
6206;DHT22;3136;48.788;9.772;2022-08-11T15:32:09;29.00;1.00
6206;DHT22;3136;48.788;9.772;2022-08-11T15:34:57;28.90;1.00
6206;DHT22;3136;48.788;9.772;2022-08-11T15:37:46;28.80;1.00
6206;DHT22;3136;48.788;9.772;2022-08-11T15:40:28;28.70;1.00
6206;DHT22;3136;48.788;9.772;2022-08-11T15:43:18;28.70;1.00
6206;DHT22;3136;48.788;9.772;2022-08-11T15:46:46;28.70;1.00
6206;DHT22;3136;48.788;9.772;2022-08-11T15:49:43;28.60;1.00
6206;DHT22;3136;48.788;9.772;2022-08-11T15:52:09;28.50;1.00
6206;DHT22;3136;48.788;9.772;2022-08-11T15:54:40;28.40;1.00
6206;DHT22;3136;48.788;9.772;2022-08-11T15:57:07;28.40;1.00
6206;DHT22;3136;48.788;9.772;2022-08-11T15:59:36;28.40;1.00
6206;DHT22;3136;48.788;9.772;2022-08-11T16:02:23;28.30;1.00
6206;DHT22;3136;48.788;9.772;2022-08-11T16:04:50;28.30;1.00
6206;DHT22;3136;48.788;9.772;2022-08-11T16:07:19;28.30;1.00
6206;DHT22;3136;48.788;9.772;2022-08-11T16:10:03;28.30;1.00
6206;DHT22;3136;48.788;9.772;2022-08-11T16:12:39;28.20;1.00
6206;DHT22;3136;48.788;9.772;2022-08-11T16:15:08;28.20;1.00
6206;DHT22;3136;48.788;9.772;2022-08-11T16:17:59;28.20;1.00
6206;DHT22;3136;48.788;9.772;2022-08-11T16:20:27;28.20;1.00
6206;DHT22;3136;48.788;9.772;2022-08-11T16:22:57;28.10;1.00
6206;DHT22;3136;48.788;9.772;2022-08-11T16:25:24;28.10;1.00
6206;DHT22;3136;48.788;9.772;2022-08-11T16:27:53;28.00;1.00
6206;DHT22;3136;48.788;9.772;2022-08-11T16:30:20;28.00;1.00
6206;DHT22;3136;48.788;9.772;2022-08-11T16:32:48;28.00;1.00
6206;DHT22;3136;48.788;9.772;2022-08-11T16:35:21;27.90;1.00
6206;DHT22;3136;48.788;9.772;2022-08-11T16:38:07;27.90;1.00
6206;DHT22;3136;48.788;9.772;2022-08-11T16:40:53;27.90;1.00
6206;DHT22;3136;48.788;9.772;2022-08-11T16:43:22;27.80;1.00
6206;DHT22;3136;48.788;9.772;2022-08-11T16:46:08;27.80;1.00
6206;DHT22;3136;48.788;9.772;2022-08-11T16:48:54;27.80;1.00
6206;DHT22;3136;48.788;9.772;2022-08-11T16:51:21;27.70;1.00
6206;DHT22;3136;48.788;9.772;2022-08-11T16:53:48;27.70;1.00
6206;DHT22;3136;48.788;9.772;2022-08-11T16:56:18;27.70;1.00
6206;DHT22;3136;48.788;9.772;2022-08-11T16:58:54;27.60;1.00
6206;DHT22;3136;48.788;9.772;2022-08-11T17:01:47;27.60;1.00
6206;DHT22;3136;48.788;9.772;2022-08-11T17:04:40;27.50;1.00
6206;DHT22;3136;48.788;9.772;2022-08-11T17:07:28;27.50;1.00
6206;DHT22;3136;48.788;9.772;2022-08-11T17:10:28;27.40;1.00
6206;DHT22;3136;48.788;9.772;2022-08-11T17:13:14;27.40;1.00
6206;DHT22;3136;48.788;9.772;2022-08-11T17:15:46;27.30;1.00
6206;DHT22;3136;48.788;9.772;2022-08-11T17:18:34;27.30;1.00
6206;DHT22;3136;48.788;9.772;2022-08-11T17:21:32;27.30;1.00
6206;DHT22;3136;48.788;9.772;2022-08-11T17:24:01;27.20;1.00
6206;DHT22;3136;48.788;9.772;2022-08-11T17:26:42;27.20;1.00
6206;DHT22;3136;48.788;9.772;2022-08-11T17:29:31;27.10;1.00
6206;DHT22;3136;48.788;9.772;2022-08-11T17:31:58;27.00;1.00
6206;DHT22;3136;48.788;9.772;2022-08-11T17:34:44;26.90;1.00
6206;DHT22;3136;48.788;9.772;2022-08-11T17:37:30;26.80;1.00
6206;DHT22;3136;48.788;9.772;2022-08-11T17:40:00;26.80;1.00
6206;DHT22;3136;48.788;9.772;2022-08-11T17:42:27;26.70;1.00
6206;DHT22;3136;48.788;9.772;2022-08-11T17:45:13;26.70;1.00
6206;DHT22;3136;48.788;9.772;2022-08-11T17:48:00;26.60;1.00
6206;DHT22;3136;48.788;9.772;2022-08-11T17:50:45;26.60;1.00
6206;DHT22;3136;48.788;9.772;2022-08-11T17:53:13;26.60;1.00
6206;DHT22;3136;48.788;9.772;2022-08-11T17:55:59;26.60;1.00
6206;DHT22;3136;48.788;9.772;2022-08-11T17:58:44;26.50;1.00
6206;DHT22;3136;48.788;9.772;2022-08-11T18:01:30;26.40;1.00
6206;DHT22;3136;48.788;9.772;2022-08-11T18:04:04;26.30;1.00
6206;DHT22;3136;48.788;9.772;2022-08-11T18:06:30;26.20;1.00
6206;DHT22;3136;48.788;9.772;2022-08-11T18:08:57;26.10;1.00
6206;DHT22;3136;48.788;9.772;2022-08-11T18:11:42;26.10;1.00
6206;DHT22;3136;48.788;9.772;2022-08-11T18:14:29;26.00;1.00
6206;DHT22;3136;48.788;9.772;2022-08-11T18:17:14;25.90;1.00
6206;DHT22;3136;48.788;9.772;2022-08-11T18:19:59;25.70;1.00
6206;DHT22;3136;48.788;9.772;2022-08-11T18:22:44;25.50;1.00
6206;DHT22;3136;48.788;9.772;2022-08-11T18:25:38;25.20;1.00
6206;DHT22;3136;48.788;9.772;2022-08-11T18:28:25;25.00;1.00
6206;DHT22;3136;48.788;9.772;2022-08-11T18:31:12;24.80;1.00
6206;DHT22;3136;48.788;9.772;2022-08-11T18:34:01;24.60;1.00
6206;DHT22;3136;48.788;9.772;2022-08-11T18:39:44;24.30;1.00
6206;DHT22;3136;48.788;9.772;2022-08-11T18:42:31;24.00;1.00
6206;DHT22;3136;48.788;9.772;2022-08-11T18:45:18;23.90;1.00
6206;DHT22;3136;48.788;9.772;2022-08-11T18:48:09;23.80;1.00
6206;DHT22;3136;48.788;9.772;2022-08-11T18:50:56;23.60;1.00
6206;DHT22;3136;48.788;9.772;2022-08-11T18:53:48;23.50;1.00
6206;DHT22;3136;48.788;9.772;2022-08-11T18:56:33;23.30;1.00
6206;DHT22;3136;48.788;9.772;2022-08-11T18:59:19;23.10;1.00
6206;DHT22;3136;48.788;9.772;2022-08-11T19:02:05;23.00;1.00
6206;DHT22;3136;48.788;9.772;2022-08-11T19:04:50;22.90;1.00
6206;DHT22;3136;48.788;9.772;2022-08-11T19:07:37;22.80;1.00
6206;DHT22;3136;48.788;9.772;2022-08-11T19:10:22;22.60;1.00
6206;DHT22;3136;48.788;9.772;2022-08-11T19:13:07;22.50;1.00
6206;DHT22;3136;48.788;9.772;2022-08-11T19:15:53;22.20;1.00
6206;DHT22;3136;48.788;9.772;2022-08-11T19:18:38;21.80;1.00
6206;DHT22;3136;48.788;9.772;2022-08-11T19:21:25;21.80;1.00
6206;DHT22;3136;48.788;9.772;2022-08-11T19:24:12;21.60;1.00
6206;DHT22;3136;48.788;9.772;2022-08-11T19:26:57;21.40;1.00
6206;DHT22;3136;48.788;9.772;2022-08-11T19:29:42;21.20;1.00
6206;DHT22;3136;48.788;9.772;2022-08-11T19:32:28;20.80;1.00
6206;DHT22;3136;48.788;9.772;2022-08-11T19:35:13;20.70;1.00
6206;DHT22;3136;48.788;9.772;2022-08-11T19:37:59;20.50;1.00
6206;DHT22;3136;48.788;9.772;2022-08-11T19:40:45;20.40;1.00
6206;DHT22;3136;48.788;9.772;2022-08-11T19:43:31;20.30;1.00
6206;DHT22;3136;48.788;9.772;2022-08-11T19:46:19;20.00;1.00
6206;DHT22;3136;48.788;9.772;2022-08-11T19:49:05;20.00;1.00
6206;DHT22;3136;48.788;9.772;2022-08-11T19:51:50;19.80;1.00
6206;DHT22;3136;48.788;9.772;2022-08-11T19:54:35;19.70;1.00
6206;DHT22;3136;48.788;9.772;2022-08-11T19:57:22;19.60;1.00
6206;DHT22;3136;48.788;9.772;2022-08-11T20:00:13;19.50;1.00
6206;DHT22;3136;48.788;9.772;2022-08-11T20:02:59;19.40;1.00
6206;DHT22;3136;48.788;9.772;2022-08-11T20:05:44;19.30;1.00
6206;DHT22;3136;48.788;9.772;2022-08-11T20:08:30;19.20;1.00
6206;DHT22;3136;48.788;9.772;2022-08-11T20:11:17;19.10;1.00
6206;DHT22;3136;48.788;9.772;2022-08-11T20:14:02;19.00;1.00
6206;DHT22;3136;48.788;9.772;2022-08-11T20:16:50;19.00;1.00
6206;DHT22;3136;48.788;9.772;2022-08-11T20:19:36;18.90;1.00
6206;DHT22;3136;48.788;9.772;2022-08-11T20:22:23;18.80;1.00
6206;DHT22;3136;48.788;9.772;2022-08-11T20:25:08;18.70;1.00
6206;DHT22;3136;48.788;9.772;2022-08-11T20:27:53;18.60;1.00
6206;DHT22;3136;48.788;9.772;2022-08-11T20:30:41;18.40;1.00
6206;DHT22;3136;48.788;9.772;2022-08-11T20:33:26;18.30;1.00
6206;DHT22;3136;48.788;9.772;2022-08-11T20:36:11;18.30;1.00
6206;DHT22;3136;48.788;9.772;2022-08-11T20:38:57;18.20;1.00
6206;DHT22;3136;48.788;9.772;2022-08-11T20:41:43;18.10;1.00
6206;DHT22;3136;48.788;9.772;2022-08-11T20:44:29;18.00;1.00
6206;DHT22;3136;48.788;9.772;2022-08-11T20:47:15;18.00;1.00
6206;DHT22;3136;48.788;9.772;2022-08-11T20:50:01;17.90;1.00
6206;DHT22;3136;48.788;9.772;2022-08-11T20:52:46;17.80;1.00